createdAt,value
2024-05-09T00:03:43.695Z,11.79
2024-05-09T00:13:47.346Z,11.67
2024-05-09T00:23:49.958Z,11.53
2024-05-09T00:33:56.288Z,11.23
2024-05-09T00:43:59.711Z,11.20
2024-05-09T00:54:02.724Z,11.20
2024-05-09T01:04:05.678Z,10.49
2024-05-09T01:14:08.451Z,10.55
2024-05-09T01:24:11.203Z,10.33
2024-05-09T01:34:13.876Z,10.18
2024-05-09T01:44:16.696Z,10.10
2024-05-09T01:54:19.448Z,9.90
2024-05-09T02:04:22.189Z,9.61
2024-05-09T02:14:25.065Z,9.39
2024-05-09T02:24:27.747Z,9.20
2024-05-09T02:34:30.449Z,8.80
2024-05-09T02:44:33.161Z,8.77
2024-05-09T02:54:35.794Z,8.65
2024-05-09T03:04:38.801Z,8.68
2024-05-09T03:14:41.554Z,8.79
2024-05-09T03:24:44.189Z,8.81
2024-05-09T03:34:46.826Z,8.63
2024-05-09T03:44:49.567Z,8.65
2024-05-09T03:54:52.205Z,8.95
2024-05-09T04:04:54.889Z,9.44
2024-05-09T04:14:58.008Z,9.78
2024-05-09T04:25:00.669Z,10.92
2024-05-09T04:35:03.667Z,11.46
2024-05-09T04:45:06.680Z,11.78
2024-05-09T04:55:09.283Z,12.20
2024-05-09T05:05:12.262Z,12.70
2024-05-09T05:15:15.109Z,12.82
2024-05-09T05:25:18.399Z,12.94
2024-05-09T05:35:21.902Z,13.22
2024-05-09T05:45:24.657Z,13.41
2024-05-09T05:55:27.380Z,13.66
2024-05-09T06:05:30.840Z,14.32
2024-05-09T06:15:33.585Z,14.54
2024-05-09T06:25:36.970Z,14.92
2024-05-09T06:35:40.829Z,15.11
2024-05-09T06:45:53.999Z,15.61
2024-05-09T06:56:02.417Z,16.04
2024-05-09T07:06:05.945Z,16.13
2024-05-09T07:16:10.029Z,15.79
2024-05-09T07:26:13.549Z,15.83
2024-05-09T07:36:16.392Z,16.01
2024-05-09T07:47:14.509Z,16.58
2024-05-09T07:56:42.169Z,17.36
2024-05-09T08:06:44.976Z,17.48
2024-05-09T08:16:47.715Z,17.74
2024-05-09T08:26:50.512Z,17.96
2024-05-09T08:36:53.398Z,17.61
2024-05-09T08:46:57.349Z,17.18
2024-05-09T08:57:00.992Z,17.81
2024-05-09T09:07:07.133Z,19.03
2024-05-09T09:17:17.030Z,19.39
2024-05-09T09:27:19.905Z,18.64
2024-05-09T09:37:28.719Z,19.85
2024-05-09T09:47:33.333Z,19.33
2024-05-09T09:57:40.312Z,19.56
2024-05-09T10:07:46.725Z,20.36
2024-05-09T10:17:51.539Z,20.49
2024-05-09T10:28:00.383Z,21.16
2024-05-09T10:38:08.936Z,21.60
2024-05-09T10:48:12.032Z,22.15
2024-05-09T10:58:18.406Z,21.84
2024-05-09T11:08:23.311Z,22.54
2024-05-09T11:18:30.848Z,22.76
2024-05-09T11:28:36.528Z,22.70
2024-05-09T11:38:40.693Z,23.12
2024-05-09T11:48:44.157Z,22.88
2024-05-09T11:58:47.486Z,23.32
2024-05-09T12:08:50.552Z,23.70
2024-05-09T12:18:54.178Z,24.15
2024-05-09T12:28:59.293Z,24.10
2024-05-09T12:39:06.312Z,24.18
2024-05-09T12:49:10.537Z,23.32
2024-05-09T12:59:14.124Z,24.03
2024-05-09T13:09:16.934Z,23.91
2024-05-09T13:19:19.946Z,23.74
2024-05-09T13:29:23.221Z,24.17
2024-05-09T13:39:25.882Z,24.30
2024-05-09T13:49:29.302Z,25.17
2024-05-09T13:59:32.374Z,25.05
2024-05-09T14:09:35.065Z,24.50
2024-05-09T14:19:37.857Z,24.91
2024-05-09T14:30:12.172Z,24.88
2024-05-09T14:40:31.112Z,24.18
2024-05-09T14:50:43.633Z,23.99
2024-05-09T15:00:50.204Z,24.04
2024-05-09T15:10:54.445Z,24.13
2024-05-09T15:20:57.654Z,23.27
2024-05-09T15:31:01.163Z,23.74
2024-05-09T15:41:05.135Z,23.13
2024-05-09T15:51:07.994Z,22.66
2024-05-09T16:01:12.578Z,22.55
2024-05-09T16:11:17.282Z,22.07
2024-05-09T16:21:20.656Z,21.50
2024-05-09T16:31:25.221Z,21.22
2024-05-09T16:41:28.638Z,20.89
2024-05-09T16:51:31.549Z,20.70
2024-05-09T17:01:34.457Z,20.20
2024-05-09T17:11:37.358Z,19.75
2024-05-09T17:21:40.118Z,18.91
2024-05-09T17:31:44.121Z,18.38
2024-05-09T17:41:46.869Z,17.95
2024-05-09T17:51:53.940Z,17.49
2024-05-09T18:01:57.203Z,17.00
2024-05-09T18:12:00.223Z,16.36
2024-05-09T18:22:03.034Z,15.73
2024-05-09T18:32:06.696Z,15.25
2024-05-09T18:42:09.441Z,14.81
2024-05-09T18:52:12.987Z,14.67
2024-05-09T19:02:15.890Z,14.51
2024-05-09T19:12:18.736Z,14.24
2024-05-09T19:22:22.560Z,13.94
2024-05-09T19:32:26.272Z,13.65
2024-05-09T19:42:31.448Z,13.47
2024-05-09T19:52:34.457Z,12.71
2024-05-09T20:02:37.593Z,12.45
2024-05-09T20:12:40.395Z,12.04
2024-05-09T20:22:44.746Z,11.89
2024-05-09T20:32:47.978Z,11.71
2024-05-09T20:42:51.441Z,11.78
2024-05-09T20:52:54.038Z,11.79
2024-05-09T21:02:56.857Z,11.50
2024-05-09T21:12:59.715Z,11.24
2024-05-09T21:23:03.014Z,10.99
2024-05-09T21:33:06.190Z,10.87
2024-05-09T21:43:09.306Z,10.49
2024-05-09T21:53:12.837Z,10.52
2024-05-09T22:03:16.133Z,10.62
2024-05-09T22:13:20.339Z,10.35
2024-05-09T22:23:23.070Z,10.20
2024-05-09T22:33:25.820Z,10.13
2024-05-09T22:43:28.476Z,9.93
2024-05-09T22:53:31.091Z,9.42
2024-05-09T23:03:34.118Z,9.44
2024-05-09T23:13:37.076Z,9.40
2024-05-09T23:23:39.707Z,9.71
2024-05-09T23:33:47.143Z,9.89
2024-05-09T23:43:50.322Z,9.71
2024-05-09T23:53:53.065Z,9.58
